createdAt,value
2022-07-25T00:02:03.658Z,21.96
2022-07-25T00:04:35.063Z,21.97
2022-07-25T00:07:03.916Z,21.96
2022-07-25T00:09:31.659Z,21.95
2022-07-25T00:11:59.516Z,21.95
2022-07-25T00:14:27.344Z,21.93
2022-07-25T00:16:56.586Z,21.92
2022-07-25T00:19:24.356Z,21.89
2022-07-25T00:21:52.255Z,21.85
2022-07-25T00:24:20.132Z,21.82
2022-07-25T00:26:47.901Z,21.77
2022-07-25T00:29:15.707Z,21.73
2022-07-25T00:31:43.520Z,21.72
2022-07-25T00:34:12.704Z,21.71
2022-07-25T00:36:40.504Z,21.67
2022-07-25T00:39:08.269Z,21.65
2022-07-25T00:41:36.479Z,21.63
2022-07-25T00:44:04.690Z,21.61
2022-07-25T00:46:32.777Z,21.57
2022-07-25T00:49:00.645Z,21.56
2022-07-25T00:51:29.880Z,21.56
2022-07-25T00:53:58.648Z,21.57
2022-07-25T00:56:26.532Z,21.57
2022-07-25T00:58:54.351Z,21.55
2022-07-25T01:01:22.229Z,21.56
2022-07-25T01:03:50.032Z,21.54
2022-07-25T01:06:18.193Z,21.53
2022-07-25T01:08:48.047Z,21.54
2022-07-25T01:11:16.129Z,21.54
2022-07-25T01:13:43.912Z,21.56
2022-07-25T01:16:11.779Z,21.57
2022-07-25T01:18:39.607Z,21.55
2022-07-25T01:21:08.942Z,21.52
2022-07-25T01:23:36.878Z,21.49
2022-07-25T01:26:04.784Z,21.47
2022-07-25T01:28:32.578Z,21.43
2022-07-25T01:31:00.765Z,21.40
2022-07-25T01:33:28.633Z,21.39
2022-07-25T01:38:25.456Z,21.39
2022-07-25T01:40:53.231Z,21.39
2022-07-25T01:43:21.065Z,21.41
2022-07-25T01:45:48.884Z,21.42
2022-07-25T01:48:16.917Z,21.43
2022-07-25T01:50:44.880Z,21.44
2022-07-25T01:53:12.730Z,21.45
2022-07-25T01:55:41.914Z,21.43
2022-07-25T01:58:10.929Z,21.44
2022-07-25T02:00:39.978Z,21.43
2022-07-25T02:03:25.295Z,21.44
2022-07-25T02:05:53.092Z,21.43
2022-07-25T02:08:20.804Z,21.44
2022-07-25T02:10:50.061Z,21.45
2022-07-25T02:13:17.897Z,21.40
2022-07-25T02:15:45.685Z,21.36
2022-07-25T02:18:13.602Z,21.34
2022-07-25T02:20:41.413Z,21.30
2022-07-25T02:23:09.260Z,21.29
2022-07-25T02:25:36.996Z,21.29
2022-07-25T02:28:06.402Z,21.30
2022-07-25T02:30:34.228Z,21.27
2022-07-25T02:33:01.976Z,21.27
2022-07-25T02:35:29.733Z,21.26
2022-07-25T02:37:57.504Z,21.25
2022-07-25T02:40:25.360Z,21.21
2022-07-25T02:42:53.217Z,21.15
2022-07-25T02:45:22.813Z,21.10
2022-07-25T02:47:50.758Z,21.06
2022-07-25T02:50:18.840Z,21.02
2022-07-25T02:52:46.636Z,20.99
2022-07-25T02:55:14.421Z,20.96
2022-07-25T02:57:42.246Z,20.92
2022-07-25T03:00:11.306Z,20.84
2022-07-25T03:02:40.453Z,20.76
2022-07-25T03:05:09.524Z,20.70
2022-07-25T03:07:38.346Z,20.67
2022-07-25T03:10:11.256Z,20.65
2022-07-25T03:12:40.078Z,20.62
2022-07-25T03:15:08.967Z,20.60
2022-07-25T03:17:37.075Z,20.58
2022-07-25T03:20:08.270Z,20.56
2022-07-25T03:22:36.989Z,20.54
2022-07-25T03:25:05.517Z,20.52
2022-07-25T03:27:43.149Z,20.51
2022-07-25T03:30:12.190Z,20.50
2022-07-25T03:32:39.934Z,20.48
2022-07-25T03:35:10.266Z,20.49
2022-07-25T03:37:38.009Z,20.44
2022-07-25T03:40:06.827Z,20.42
2022-07-25T03:42:35.343Z,20.40
2022-07-25T03:45:03.501Z,20.37
2022-07-25T03:47:31.295Z,20.35
2022-07-25T03:49:59.041Z,20.36
2022-07-25T03:52:28.165Z,20.36
2022-07-25T03:54:55.898Z,20.33
2022-07-25T03:57:23.659Z,20.32
2022-07-25T03:59:51.371Z,20.31
2022-07-25T04:02:19.164Z,20.29
2022-07-25T04:04:47.008Z,20.29
2022-07-25T04:07:14.766Z,20.32
2022-07-25T04:09:43.893Z,20.35
2022-07-25T04:12:11.971Z,20.41
2022-07-25T04:14:39.753Z,20.49
2022-07-25T04:17:07.598Z,20.57
2022-07-25T04:19:37.044Z,20.64
2022-07-25T04:22:04.838Z,20.67
2022-07-25T04:24:32.606Z,20.71
2022-07-25T04:27:01.902Z,20.72
2022-07-25T04:29:30.064Z,20.74
2022-07-25T04:31:58.147Z,20.76
2022-07-25T04:34:26.215Z,20.76
2022-07-25T04:36:53.941Z,20.78
2022-07-25T04:39:21.709Z,20.76
2022-07-25T04:41:49.603Z,20.78
2022-07-25T04:44:18.722Z,20.79
2022-07-25T04:46:46.465Z,20.78
2022-07-25T04:49:14.589Z,20.80
2022-07-25T04:51:42.413Z,20.83
2022-07-25T04:54:10.495Z,20.85
2022-07-25T04:56:38.429Z,20.86
2022-07-25T04:59:07.203Z,20.89
2022-07-25T05:01:36.706Z,20.92
2022-07-25T05:04:04.861Z,20.93
2022-07-25T05:06:33.180Z,20.92
2022-07-25T05:09:00.978Z,20.93
2022-07-25T05:11:28.818Z,20.93
2022-07-25T05:13:56.641Z,20.91
2022-07-25T05:16:24.510Z,20.94
2022-07-25T05:18:53.724Z,20.95
2022-07-25T05:21:21.515Z,20.98
2022-07-25T05:23:49.230Z,20.99
2022-07-25T05:26:17.098Z,21.03
2022-07-25T05:28:44.840Z,21.08
2022-07-25T05:31:12.848Z,21.13
2022-07-25T05:33:41.011Z,21.17
2022-07-25T05:36:10.454Z,21.18
2022-07-25T05:38:38.234Z,21.20
2022-07-25T05:41:06.188Z,21.23
2022-07-25T05:43:34.382Z,21.25
2022-07-25T05:46:03.293Z,21.30
2022-07-25T05:48:31.357Z,21.35
2022-07-25T05:51:00.143Z,21.45
2022-07-25T05:53:29.399Z,21.49
2022-07-25T05:55:57.213Z,21.50
2022-07-25T05:58:29.483Z,21.48
2022-07-25T06:00:58.191Z,21.44
2022-07-25T06:03:26.151Z,21.40
2022-07-25T06:05:55.714Z,21.41
2022-07-25T06:08:23.962Z,21.43
2022-07-25T06:10:54.109Z,21.51
2022-07-25T06:13:23.583Z,21.55
2022-07-25T06:15:51.661Z,21.58
2022-07-25T06:18:19.542Z,21.56
2022-07-25T06:20:47.302Z,21.48
2022-07-25T06:23:15.190Z,21.39
2022-07-25T06:25:42.977Z,21.30
2022-07-25T06:28:19.288Z,21.21
2022-07-25T06:30:48.167Z,21.17
2022-07-25T06:33:15.999Z,21.14
2022-07-25T06:35:43.822Z,21.12
2022-07-25T06:38:11.651Z,21.09
2022-07-25T06:40:39.372Z,21.04
2022-07-25T06:43:07.172Z,20.99
2022-07-25T06:45:36.551Z,20.97
2022-07-25T06:48:04.701Z,20.94
2022-07-25T06:50:32.470Z,20.95
2022-07-25T06:53:00.264Z,20.94
2022-07-25T06:55:28.020Z,20.97
2022-07-25T06:57:55.943Z,20.97
2022-07-25T07:00:23.774Z,20.96
2022-07-25T07:02:56.884Z,20.97
2022-07-25T07:05:28.078Z,20.99
2022-07-25T07:07:56.035Z,21.04
2022-07-25T07:10:24.451Z,21.09
2022-07-25T07:12:52.547Z,21.12
2022-07-25T07:15:20.320Z,21.15
2022-07-25T07:17:48.084Z,21.17
2022-07-25T07:20:17.224Z,21.21
2022-07-25T07:22:46.072Z,21.19
2022-07-25T07:25:15.681Z,21.18
2022-07-25T07:27:44.017Z,21.19
2022-07-25T07:30:14.803Z,21.10
2022-07-25T07:32:42.692Z,20.96
2022-07-25T07:35:11.214Z,20.90
2022-07-25T07:37:43.597Z,20.83
2022-07-25T07:40:16.823Z,20.77
2022-07-25T07:42:50.212Z,20.71
2022-07-25T07:45:19.728Z,20.67
2022-07-25T07:47:48.662Z,20.67
2022-07-25T07:50:18.037Z,20.72
2022-07-25T07:52:47.846Z,20.80
2022-07-25T07:55:33.762Z,20.86
2022-07-25T07:58:01.934Z,21.00
2022-07-25T08:00:30.996Z,21.09
2022-07-25T08:03:00.524Z,21.11
2022-07-25T08:05:30.173Z,21.21
2022-07-25T08:08:00.572Z,21.35
2022-07-25T08:10:30.331Z,21.56
2022-07-25T08:12:59.157Z,21.86
2022-07-25T08:15:27.474Z,22.19
2022-07-25T08:17:55.427Z,22.68
2022-07-25T08:20:39.495Z,23.02
2022-07-25T08:23:11.007Z,23.53
2022-07-25T08:25:39.222Z,23.80
2022-07-25T08:28:07.712Z,24.14
2022-07-25T08:30:36.410Z,24.53
2022-07-25T08:33:06.681Z,24.57
2022-07-25T08:35:35.901Z,24.34
2022-07-25T08:38:05.649Z,24.07
2022-07-25T08:40:35.414Z,23.83
2022-07-25T08:43:03.244Z,23.52
2022-07-25T08:45:31.083Z,23.29
2022-07-25T08:47:58.828Z,23.15
2022-07-25T08:50:28.672Z,22.97
2022-07-25T08:53:16.536Z,22.86
2022-07-25T08:55:46.687Z,22.75
2022-07-25T08:58:16.102Z,22.69
2022-07-25T09:00:44.899Z,22.71
2022-07-25T09:03:13.313Z,22.75
2022-07-25T09:05:41.462Z,22.89
2022-07-25T09:08:11.087Z,23.03
2022-07-25T09:10:40.720Z,23.09
2022-07-25T09:13:14.199Z,23.14
2022-07-25T09:15:45.504Z,23.17
2022-07-25T09:18:17.042Z,23.24
2022-07-25T09:20:47.161Z,23.24
2022-07-25T09:23:16.702Z,23.18
2022-07-25T09:25:44.435Z,23.26
2022-07-25T09:28:15.766Z,23.42
2022-07-25T09:30:55.863Z,23.55
2022-07-25T09:33:25.295Z,23.54
2022-07-25T09:35:54.520Z,23.45
2022-07-25T09:38:25.357Z,23.33
2022-07-25T09:40:57.969Z,23.10
2022-07-25T09:43:37.403Z,22.94
2022-07-25T09:46:05.949Z,22.93
2022-07-25T09:48:34.355Z,22.82
2022-07-25T09:51:02.402Z,22.79
2022-07-25T09:53:30.323Z,22.71
2022-07-25T09:55:58.115Z,22.73
2022-07-25T09:58:28.939Z,22.79
2022-07-25T10:01:03.203Z,22.77
2022-07-25T10:03:48.995Z,22.66
2022-07-25T10:06:22.919Z,22.77
2022-07-25T10:08:52.172Z,22.72
2022-07-25T10:11:22.020Z,22.64
2022-07-25T10:13:51.213Z,22.60
2022-07-25T10:16:20.750Z,22.56
2022-07-25T10:18:50.760Z,22.56
2022-07-25T10:21:28.231Z,22.52
2022-07-25T10:24:01.026Z,22.71
2022-07-25T10:26:29.026Z,23.10
2022-07-25T10:28:59.533Z,23.51
2022-07-25T10:31:35.654Z,23.99
2022-07-25T10:34:05.536Z,24.43
2022-07-25T10:36:43.758Z,24.45
2022-07-25T10:39:13.548Z,24.59
2022-07-25T10:41:42.950Z,24.81
2022-07-25T10:44:15.110Z,24.97
2022-07-25T10:46:44.969Z,25.09
2022-07-25T10:49:19.729Z,25.14
2022-07-25T10:51:56.297Z,25.26
2022-07-25T10:54:24.402Z,25.45
2022-07-25T10:56:54.738Z,25.37
2022-07-25T10:59:32.618Z,25.35
2022-07-25T11:02:01.556Z,25.63
2022-07-25T11:04:30.048Z,25.86
2022-07-25T11:06:58.657Z,26.15
2022-07-25T11:09:28.469Z,26.09
2022-07-25T11:11:58.866Z,26.21
2022-07-25T11:14:32.814Z,26.49
2022-07-25T11:17:12.347Z,26.65
2022-07-25T11:19:40.895Z,26.51
2022-07-25T11:22:09.185Z,26.43
2022-07-25T11:24:37.860Z,26.40
2022-07-25T11:27:11.323Z,26.46
2022-07-25T11:29:42.273Z,26.37
2022-07-25T11:32:11.761Z,26.28
2022-07-25T11:34:43.054Z,26.04
2022-07-25T11:37:13.043Z,25.81
2022-07-25T11:39:43.301Z,25.47
2022-07-25T11:42:13.135Z,25.36
2022-07-25T11:44:47.825Z,25.53
2022-07-25T11:47:27.549Z,25.29
2022-07-25T11:49:57.243Z,25.16
2022-07-25T11:52:29.765Z,25.11
2022-07-25T11:54:59.910Z,25.19
2022-07-25T11:57:29.821Z,25.48
2022-07-25T12:00:00.330Z,25.37
2022-07-25T12:02:31.169Z,25.16
2022-07-25T12:05:01.085Z,25.07
2022-07-25T12:07:40.128Z,24.93
2022-07-25T12:10:09.946Z,24.85
2022-07-25T12:12:49.614Z,24.84
2022-07-25T12:15:22.655Z,24.77
2022-07-25T12:17:51.631Z,24.62
2022-07-25T12:20:20.832Z,24.45
2022-07-25T12:22:50.306Z,24.19
2022-07-25T12:25:18.562Z,24.16
2022-07-25T12:27:46.551Z,24.19
2022-07-25T12:30:15.258Z,24.07
2022-07-25T12:32:45.127Z,24.09
2022-07-25T12:35:14.712Z,24.01
2022-07-25T12:37:43.279Z,23.87
2022-07-25T12:40:13.071Z,23.80
2022-07-25T12:42:40.950Z,23.76
2022-07-25T12:45:09.390Z,23.57
2022-07-25T12:47:37.606Z,23.50
2022-07-25T12:50:07.935Z,23.48
2022-07-25T12:52:36.210Z,23.50
2022-07-25T12:55:04.138Z,23.39
2022-07-25T12:57:32.149Z,23.38
2022-07-25T12:59:59.925Z,23.43
2022-07-25T13:02:27.739Z,23.45
2022-07-25T13:04:55.540Z,23.58
2022-07-25T13:07:24.705Z,23.77
2022-07-25T13:09:52.466Z,23.99
2022-07-25T13:12:20.682Z,24.17
2022-07-25T13:14:49.028Z,24.20
2022-07-25T13:17:16.772Z,24.25
2022-07-25T13:19:44.503Z,24.34
2022-07-25T13:22:12.709Z,24.46
2022-07-25T13:24:41.784Z,24.54
2022-07-25T13:27:09.741Z,24.60
2022-07-25T13:29:37.603Z,24.76
2022-07-25T13:32:06.331Z,24.71
2022-07-25T13:34:34.150Z,24.52
2022-07-25T13:37:01.938Z,24.43
2022-07-25T13:39:29.677Z,24.47
2022-07-25T13:41:58.705Z,24.45
2022-07-25T13:44:26.411Z,24.56
2022-07-25T13:46:54.186Z,24.70
2022-07-25T13:49:21.989Z,24.81
2022-07-25T13:51:49.745Z,24.72
2022-07-25T13:54:17.695Z,24.73
2022-07-25T13:56:45.445Z,24.59
2022-07-25T13:59:20.426Z,24.41
2022-07-25T14:01:49.283Z,24.20
2022-07-25T14:04:17.139Z,24.14
2022-07-25T14:06:45.221Z,23.92
2022-07-25T14:09:12.975Z,23.74
2022-07-25T14:11:40.720Z,23.58
2022-07-25T14:14:08.454Z,23.53
2022-07-25T14:16:40.209Z,23.51
2022-07-25T14:19:09.310Z,23.41
2022-07-25T14:21:37.950Z,23.36
2022-07-25T14:24:06.342Z,23.18
2022-07-25T14:26:34.775Z,23.12
2022-07-25T14:29:03.389Z,23.07
2022-07-25T14:31:32.160Z,22.88
2022-07-25T14:34:01.340Z,22.83
2022-07-25T14:36:29.059Z,22.56
2022-07-25T14:38:56.906Z,22.53
2022-07-25T14:41:24.683Z,22.51
2022-07-25T14:43:52.691Z,22.49
2022-07-25T14:46:21.016Z,22.50
2022-07-25T14:48:49.020Z,22.42
2022-07-25T14:51:19.891Z,22.51
2022-07-25T14:53:51.347Z,22.72
2022-07-25T14:56:21.016Z,22.87
2022-07-25T14:58:48.784Z,22.79
2022-07-25T15:01:18.764Z,22.64
2022-07-25T15:03:46.782Z,22.54
2022-07-25T15:06:14.618Z,22.39
2022-07-25T15:08:44.726Z,22.43
2022-07-25T15:11:12.612Z,22.37
2022-07-25T15:13:40.385Z,22.30
2022-07-25T15:16:08.513Z,22.25
2022-07-25T15:18:58.480Z,22.26
2022-07-25T15:21:25.202Z,22.29
2022-07-25T15:23:54.383Z,22.27
2022-07-25T15:26:22.233Z,22.19
2022-07-25T15:28:50.233Z,22.14
2022-07-25T15:31:18.126Z,22.20
2022-07-25T15:33:45.889Z,22.17
2022-07-25T15:36:13.683Z,22.09
2022-07-25T15:38:42.005Z,21.91
2022-07-25T15:41:11.899Z,21.82
2022-07-25T15:43:39.961Z,21.79
2022-07-25T15:46:12.856Z,21.82
2022-07-25T15:48:41.056Z,21.72
2022-07-25T15:51:08.873Z,21.70
2022-07-25T15:53:36.654Z,21.60
2022-07-25T15:56:04.726Z,21.53
2022-07-25T15:58:33.853Z,21.47
2022-07-25T16:01:01.854Z,21.35
2022-07-25T16:03:29.831Z,21.29
2022-07-25T16:05:57.626Z,21.23
2022-07-25T16:08:25.508Z,21.20
2022-07-25T16:10:53.302Z,21.14
2022-07-25T16:13:21.124Z,21.16
2022-07-25T16:15:50.279Z,21.17
2022-07-25T16:18:18.270Z,21.21
2022-07-25T16:20:46.049Z,21.20
2022-07-25T16:23:13.854Z,21.16
2022-07-25T16:25:41.633Z,21.18
2022-07-25T16:28:09.419Z,21.23
2022-07-25T16:30:37.209Z,21.24
2022-07-25T16:33:06.435Z,21.26
2022-07-25T16:35:34.416Z,21.22
2022-07-25T16:38:02.492Z,21.22
2022-07-25T16:40:31.260Z,21.19
2022-07-25T16:42:59.661Z,21.20
2022-07-25T16:45:28.209Z,21.16
2022-07-25T16:47:56.275Z,21.09
2022-07-25T16:50:25.469Z,21.02
2022-07-25T16:52:53.655Z,20.95
2022-07-25T16:55:21.723Z,20.91
2022-07-25T16:57:49.557Z,20.87
2022-07-25T17:00:17.727Z,20.90
2022-07-25T17:02:46.674Z,20.94
2022-07-25T17:05:14.638Z,20.99
2022-07-25T17:07:43.861Z,21.00
2022-07-25T17:10:11.865Z,21.07
2022-07-25T17:12:39.683Z,21.10
2022-07-25T17:15:09.118Z,21.13
2022-07-25T17:17:36.954Z,21.18
2022-07-25T17:20:05.790Z,21.23
2022-07-25T17:22:33.523Z,21.21
2022-07-25T17:25:02.761Z,21.17
2022-07-25T17:27:31.068Z,21.20
2022-07-25T17:29:58.889Z,21.24
2022-07-25T17:32:29.925Z,21.24
2022-07-25T17:34:58.296Z,21.27
2022-07-25T17:37:27.624Z,21.31
2022-07-25T17:39:55.515Z,21.28
2022-07-25T17:42:24.713Z,21.26
2022-07-25T17:44:53.111Z,21.29
2022-07-25T17:47:21.151Z,21.33
2022-07-25T17:49:50.885Z,21.31
2022-07-25T17:52:18.760Z,21.32
2022-07-25T17:54:46.483Z,21.33
2022-07-25T17:57:14.448Z,21.31
2022-07-25T17:59:43.685Z,21.28
2022-07-25T18:02:11.652Z,21.24
2022-07-25T18:04:39.463Z,21.19
2022-07-25T18:07:07.253Z,21.12
2022-07-25T18:09:35.042Z,21.04
2022-07-25T18:12:02.954Z,20.98
2022-07-25T18:14:31.369Z,20.97
2022-07-25T18:17:00.532Z,20.95
2022-07-25T18:19:28.309Z,20.93
2022-07-25T18:21:56.129Z,20.90
2022-07-25T18:24:28.829Z,20.88
2022-07-25T18:26:57.301Z,20.86
2022-07-25T18:29:25.242Z,20.84
2022-07-25T18:31:53.010Z,20.83
2022-07-25T18:34:22.144Z,20.84
2022-07-25T18:36:49.909Z,20.79
2022-07-25T18:39:17.699Z,20.77
2022-07-25T18:41:45.460Z,20.74
2022-07-25T18:44:13.298Z,20.73
2022-07-25T18:46:41.256Z,20.69
2022-07-25T18:49:09.160Z,20.66
2022-07-25T18:51:38.360Z,20.62
2022-07-25T18:54:07.425Z,20.58
2022-07-25T18:56:35.481Z,20.55
2022-07-25T18:59:03.613Z,20.49
2022-07-25T19:01:31.647Z,20.44
2022-07-25T19:03:59.422Z,20.39
2022-07-25T19:06:27.232Z,20.37
2022-07-25T19:08:56.342Z,20.36
2022-07-25T19:11:24.229Z,20.36
2022-07-25T19:13:51.927Z,20.34
2022-07-25T19:16:21.415Z,20.30
2022-07-25T19:18:49.167Z,20.25
2022-07-25T19:21:17.051Z,20.25
2022-07-25T19:23:50.481Z,20.22
2022-07-25T19:26:21.134Z,20.19
2022-07-25T19:28:50.111Z,20.17
2022-07-25T19:31:18.446Z,20.18
2022-07-25T19:33:46.936Z,20.17
2022-07-25T19:36:15.374Z,20.17
2022-07-25T19:38:43.273Z,20.17
2022-07-25T19:41:11.138Z,20.15
2022-07-25T19:43:40.257Z,20.15
2022-07-25T19:46:08.189Z,20.14
2022-07-25T19:48:36.145Z,20.13
2022-07-25T19:51:04.040Z,20.07
2022-07-25T19:53:33.187Z,20.05
2022-07-25T19:56:01.304Z,20.04
2022-07-25T19:58:29.404Z,20.04
2022-07-25T20:00:58.793Z,20.05
2022-07-25T20:03:27.025Z,20.03
2022-07-25T20:05:54.728Z,20.00
2022-07-25T20:08:22.447Z,19.99
2022-07-25T20:10:50.260Z,20.00
2022-07-25T20:13:18.023Z,19.96
2022-07-25T20:15:45.785Z,19.94
2022-07-25T20:18:19.298Z,19.90
2022-07-25T20:20:47.634Z,19.88
2022-07-25T20:23:15.562Z,19.85
2022-07-25T20:25:43.507Z,19.86
2022-07-25T20:28:11.330Z,19.85
2022-07-25T20:30:39.160Z,19.86
2022-07-25T20:33:09.000Z,19.87
2022-07-25T20:35:39.514Z,19.88
2022-07-25T20:38:09.643Z,19.89
2022-07-25T20:40:38.800Z,19.89
2022-07-25T20:43:09.097Z,19.89
2022-07-25T20:45:37.235Z,19.89
2022-07-25T20:48:05.606Z,19.92
2022-07-25T20:50:33.463Z,19.92
2022-07-25T20:53:02.568Z,19.91
2022-07-25T20:55:32.329Z,19.92
2022-07-25T20:58:00.452Z,19.90
2022-07-25T21:00:30.339Z,19.90
2022-07-25T21:02:59.007Z,19.88
2022-07-25T21:05:28.125Z,19.86
2022-07-25T21:07:56.130Z,19.86
2022-07-25T21:10:25.638Z,19.86
2022-07-25T21:12:55.893Z,19.86
2022-07-25T21:15:24.837Z,19.86
2022-07-25T21:17:52.699Z,19.84
2022-07-25T21:20:20.460Z,19.82
2022-07-25T21:22:48.278Z,19.77
2022-07-25T21:25:16.140Z,19.73
2022-07-25T21:27:45.312Z,19.72
2022-07-25T21:30:13.566Z,19.74
2022-07-25T21:32:41.728Z,19.76
2022-07-25T21:35:10.200Z,19.74
2022-07-25T21:37:37.938Z,19.69
2022-07-25T21:40:06.853Z,19.67
2022-07-25T21:42:35.846Z,19.68
2022-07-25T21:45:05.850Z,19.67
2022-07-25T21:47:33.581Z,19.67
2022-07-25T21:50:24.389Z,19.70
2022-07-25T21:52:53.351Z,19.64
2022-07-25T21:55:21.902Z,19.63
2022-07-25T21:57:51.189Z,19.62
2022-07-25T22:00:21.427Z,19.64
2022-07-25T22:02:49.545Z,19.64
2022-07-25T22:05:18.896Z,19.65
2022-07-25T22:07:47.237Z,19.66
2022-07-25T22:10:16.905Z,19.66
2022-07-25T22:12:44.947Z,19.66
2022-07-25T22:15:14.094Z,19.65
2022-07-25T22:17:49.205Z,19.63
2022-07-25T22:20:18.330Z,19.58
2022-07-25T22:22:47.119Z,19.55
2022-07-25T22:25:14.893Z,19.53
2022-07-25T22:27:42.817Z,19.52
2022-07-25T22:30:17.999Z,19.49
2022-07-25T22:32:48.712Z,19.46
2022-07-25T22:35:17.045Z,19.46
2022-07-25T22:37:44.992Z,19.42
2022-07-25T22:40:13.495Z,19.40
2022-07-25T22:42:41.421Z,19.37
2022-07-25T22:45:09.981Z,19.36
2022-07-25T22:47:37.744Z,19.34
2022-07-25T22:50:09.556Z,19.33
2022-07-25T22:52:37.143Z,19.25
2022-07-25T22:55:05.692Z,19.19
2022-07-25T22:57:37.049Z,19.21
2022-07-25T23:00:06.801Z,19.15
2022-07-25T23:02:34.660Z,19.09
2022-07-25T23:05:02.493Z,19.13
2022-07-25T23:07:31.643Z,19.14
2022-07-25T23:09:59.452Z,19.14
2022-07-25T23:12:27.335Z,19.13
2022-07-25T23:14:55.132Z,19.10
2022-07-25T23:17:24.645Z,19.08
2022-07-25T23:19:54.901Z,19.06
2022-07-25T23:22:25.239Z,19.04
2022-07-25T23:24:54.414Z,19.03
2022-07-25T23:27:23.698Z,19.01
2022-07-25T23:29:51.560Z,18.99
2022-07-25T23:32:19.334Z,18.98
2022-07-25T23:34:47.148Z,18.93
2022-07-25T23:37:14.962Z,18.92
2022-07-25T23:39:42.755Z,18.89
2022-07-25T23:42:11.996Z,18.89
2022-07-25T23:44:39.847Z,18.87
2022-07-25T23:47:10.270Z,18.84
2022-07-25T23:49:38.672Z,18.81
2022-07-25T23:52:06.788Z,18.81
2022-07-25T23:54:35.733Z,18.79
2022-07-25T23:57:03.637Z,18.76
2022-07-25T23:59:32.864Z,18.75
